Time;durP1;ratioP1;P1;durP2;ratioP2;P2;SDS_P1;SDS_P2;PMS_P1;PMS_P2;Temp;Humidity;BMP_temperature;BMP_pressure;BME280_temperature;BME280_humidity;BME280_pressure;Samples;Min_cycle;Max_cycle;Signal;HPM_P1;HPM_P2
2022/08/17 00:01:23;;;;;;;46.28;39.30;;;19.20;99.90;;;;;;4933674;28;90668;-34
2022/08/17 00:03:50;;;;;;;43.60;38.67;;;19.10;99.90;;;;;;4931817;28;90433;-33
2022/08/17 00:06:26;;;;;;;41.22;35.95;;;19.10;99.90;;;;;;4939026;28;89462;-36
2022/08/17 00:09:04;;;;;;;51.80;39.10;;;19.10;99.90;;;;;;4940489;28;90639;-32
2022/08/17 00:11:36;;;;;;;44.65;36.58;;;19.00;99.90;;;;;;4942550;28;89679;-31
2022/08/17 00:14:08;;;;;;;43.40;38.17;;;18.90;99.90;;;;;;4942330;28;89276;-33
2022/08/17 00:16:37;;;;;;;43.67;36.95;;;18.90;99.90;;;;;;4941990;28;89498;-35
2022/08/17 00:19:05;;;;;;;47.55;39.38;;;18.90;99.90;;;;;;4942687;28;89979;-33
2022/08/17 00:21:33;;;;;;;51.65;38.50;;;18.80;99.90;;;;;;4942185;28;89669;-35
2022/08/17 00:23:59;;;;;;;42.97;36.38;;;18.80;99.90;;;;;;4978312;23;89778;-33
2022/08/17 00:26:27;;;;;;;43.47;36.45;;;18.80;99.90;;;;;;4941416;28;89049;-34
2022/08/17 00:28:53;;;;;;;;;;;18.80;99.90;;;;;;4942267;28;89493;-32
2022/08/17 00:31:19;;;;;;;40.22;35.45;;;18.80;99.90;;;;;;4943671;28;90646;-32
2022/08/17 00:33:45;;;;;;;41.88;35.72;;;18.80;99.90;;;;;;4942186;28;89615;-34
2022/08/17 00:36:13;;;;;;;40.25;32.92;;;18.80;99.90;;;;;;4941770;28;89078;-34
2022/08/17 00:38:38;;;;;;;36.17;30.27;;;18.80;99.90;;;;;;4942107;28;89972;-32
2022/08/17 00:41:14;;;;;;;48.38;41.10;;;18.80;99.90;;;;;;4941647;28;88822;-33
2022/08/17 00:43:52;;;;;;;46.88;39.58;;;18.80;99.90;;;;;;4942271;28;89074;-30
2022/08/17 00:46:31;;;;;;;44.55;37.50;;;18.80;99.90;;;;;;4941968;28;89684;-35
2022/08/17 00:48:58;;;;;;;41.58;36.45;;;18.80;99.90;;;;;;4941716;28;90529;-37
2022/08/17 00:51:32;;;;;;;42.10;36.75;;;18.60;99.90;;;;;;4941137;28;91007;-33
2022/08/17 00:54:10;;;;;;;48.40;38.40;;;18.50;99.90;;;;;;4941442;28;90584;-36
2022/08/17 00:56:42;;;;;;;40.08;34.42;;;18.40;99.90;;;;;;4940182;28;89866;-36
2022/08/17 00:59:10;;;;;;;43.65;37.72;;;18.40;99.90;;;;;;4941314;28;90241;-31
2022/08/17 01:01:36;;;;;;;;;;;18.30;99.90;;;;;;4933265;28;88880;-37
2022/08/17 01:04:03;;;;;;;43.67;38.35;;;18.20;99.90;;;;;;4938057;28;89421;-36
2022/08/17 01:06:30;;;;;;;46.58;38.30;;;18.20;99.90;;;;;;4941713;28;89609;-32
2022/08/17 01:08:58;;;;;;;43.60;35.47;;;18.20;99.90;;;;;;4941252;28;90583;-31
2022/08/17 01:11:25;;;;;;;37.40;33.45;;;18.20;99.90;;;;;;4941045;28;89832;-34
2022/08/17 01:13:50;;;;;;;41.90;36.70;;;18.20;99.90;;;;;;4942238;28;89754;-30
2022/08/17 01:16:25;;;;;;;45.05;38.40;;;18.20;99.90;;;;;;4941015;28;89585;-33
2022/08/17 01:18:55;;;;;;;40.85;36.35;;;18.20;99.90;;;;;;4942168;28;90387;-31
2022/08/17 01:21:42;;;;;;;41.38;36.92;;;18.20;99.90;;;;;;4940206;28;90064;-35
2022/08/17 01:24:09;;;;;;;41.95;33.95;;;18.20;99.90;;;;;;4941210;28;88673;-34
2022/08/17 01:26:36;;;;;;;42.47;37.55;;;18.20;99.90;;;;;;4940844;28;89478;-31
2022/08/17 01:29:04;;;;;;;42.78;33.30;;;18.20;99.90;;;;;;4940368;28;90755;-35
2022/08/17 01:31:38;;;;;;;37.75;31.92;;;18.10;99.90;;;;;;4941238;28;89714;-32
2022/08/17 01:34:07;;;;;;;38.55;34.22;;;18.10;99.90;;;;;;4941313;28;90091;-35
2022/08/17 01:36:34;;;;;;;42.15;36.53;;;18.00;99.90;;;;;;4940308;28;89673;-35
2022/08/17 01:39:00;;;;;;;38.22;31.45;;;18.00;99.90;;;;;;4940741;28;90217;-33
2022/08/17 01:41:27;;;;;;;40.45;36.03;;;18.00;99.90;;;;;;4940142;28;90743;-31
2022/08/17 01:44:03;;;;;;;64.25;40.25;;;18.00;99.90;;;;;;4941004;28;90626;-34
2022/08/17 01:46:32;;;;;;;38.83;34.40;;;18.00;99.90;;;;;;4940883;28;89389;-35
2022/08/17 01:48:58;;;;;;;44.78;38.85;;;18.00;99.90;;;;;;4940826;28;90443;-35
2022/08/17 01:51:31;;;;;;;42.00;35.88;;;18.00;99.90;;;;;;4941022;28;92266;-31
2022/08/17 01:53:59;;;;;;;44.58;37.63;;;18.00;99.90;;;;;;4940621;28;89911;-33
2022/08/17 01:56:27;;;;;;;37.50;33.55;;;18.00;99.90;;;;;;4940895;28;89983;-32
2022/08/17 01:58:53;;;;;;;42.70;36.35;;;18.00;99.90;;;;;;4941065;28;90111;-35
2022/08/17 02:01:27;;;;;;;42.05;34.17;;;18.00;99.90;;;;;;4934084;28;89629;-35
2022/08/17 02:03:54;;;;;;;40.53;34.22;;;18.00;99.90;;;;;;4934346;28;88960;-34
2022/08/17 02:06:19;;;;;;;49.47;39.83;;;17.90;99.90;;;;;;4939320;28;89300;-33
2022/08/17 02:08:45;;;;;;;50.78;35.15;;;17.90;99.90;;;;;;4940138;28;90908;-33
2022/08/17 02:11:15;;;;;;;44.50;33.65;;;17.90;99.90;;;;;;4940590;28;89191;-31
2022/08/17 02:13:43;;;;;;;51.85;38.15;;;17.90;99.90;;;;;;4941113;28;90688;-33
2022/08/17 02:16:09;;;;;;;43.00;38.25;;;17.90;99.90;;;;;;4940285;28;88548;-34
2022/08/17 02:18:34;;;;;;;46.10;37.97;;;18.00;99.90;;;;;;4933064;28;89385;-31
2022/08/17 02:21:00;;;;;;;53.30;43.05;;;18.00;99.90;;;;;;4921396;28;89497;-32
2022/08/17 02:23:29;;;;;;;47.65;40.08;;;18.00;99.90;;;;;;4924677;28;88769;-31
2022/08/17 02:25:56;;;;;;;;;;;17.90;99.90;;;;;;4940487;28;88480;-32
2022/08/17 02:28:22;;;;;;;49.83;39.10;;;17.90;99.90;;;;;;4928395;28;90665;-33
2022/08/17 02:30:48;;;;;;;51.05;40.45;;;17.90;99.90;;;;;;4939894;28;90554;-31
2022/08/17 02:33:14;;;;;;;45.17;38.88;;;17.90;99.90;;;;;;4939101;28;90489;-35
2022/08/17 02:35:39;;;;;;;49.25;37.95;;;17.90;99.90;;;;;;4930843;28;88882;-31
2022/08/17 02:38:06;;;;;;;47.25;39.42;;;17.90;99.90;;;;;;4935856;28;90385;-32
2022/08/17 02:40:33;;;;;;;45.53;39.78;;;17.90;99.90;;;;;;4940519;28;91035;-32
2022/08/17 02:42:58;;;;;;;49.40;40.10;;;17.90;99.90;;;;;;4940599;28;88755;-32
2022/08/17 02:45:25;;;;;;;46.42;38.40;;;17.90;99.90;;;;;;4939075;28;90287;-32
2022/08/17 02:47:52;;;;;;;47.90;35.78;;;17.90;99.90;;;;;;4940847;28;90371;-32
2022/08/17 02:50:20;;;;;;;43.80;36.92;;;17.90;99.90;;;;;;4939827;28;90631;-32
2022/08/17 02:52:47;;;;;;;43.92;35.00;;;17.80;99.90;;;;;;4929946;28;89665;-33
2022/08/17 02:55:19;;;;;;;41.45;36.95;;;17.80;99.90;;;;;;4934873;28;89232;-33
2022/08/17 02:57:46;;;;;;;44.70;36.70;;;17.80;99.90;;;;;;4939619;28;91260;-33
2022/08/17 03:00:16;;;;;;;42.70;35.97;;;17.80;99.90;;;;;;4939485;28;88965;-36
2022/08/17 03:02:43;;;;;;;40.65;34.22;;;17.80;99.90;;;;;;4939739;28;90883;-33
2022/08/17 03:05:11;;;;;;;40.63;36.22;;;17.80;99.90;;;;;;4939738;28;88990;-35
2022/08/17 03:07:37;;;;;;;43.30;36.33;;;17.70;99.90;;;;;;4940174;28;90489;-32
2022/08/17 03:10:07;;;;;;;41.92;36.22;;;17.70;99.90;;;;;;4939355;28;90028;-32
2022/08/17 03:12:37;;;;;;;43.33;36.65;;;17.70;99.90;;;;;;4939438;28;90821;-34
2022/08/17 03:15:25;;;;;;;40.65;36.35;;;17.80;99.90;;;;;;4939033;28;88191;-33
2022/08/17 03:17:51;;;;;;;32.97;29.58;;;17.70;99.90;;;;;;4939404;28;92920;-31
2022/08/17 03:20:18;;;;;;;38.88;34.70;;;17.60;99.90;;;;;;4938909;28;91082;-32
2022/08/17 03:22:47;;;;;;;46.45;36.88;;;17.50;99.90;;;;;;4939429;28;90373;-32
2022/08/17 03:25:19;;;;;;;39.08;32.78;;;17.50;99.90;;;;;;4939411;28;89325;-33
2022/08/17 03:27:45;;;;;;;43.10;34.20;;;17.40;99.90;;;;;;4925903;28;90310;-34
2022/08/17 03:30:12;;;;;;;40.55;35.95;;;17.50;99.90;;;;;;4939286;28;89700;-31
2022/08/17 03:32:47;;;;;;;37.47;33.23;;;17.50;99.90;;;;;;4939107;28;89439;-31
2022/08/17 03:35:15;;;;;;;40.10;32.83;;;17.50;99.90;;;;;;4940132;28;88686;-34
2022/08/17 03:37:40;;;;;;;;;;;17.50;99.90;;;;;;4940152;28;90173;-32
2022/08/17 03:40:07;;;;;;;39.58;35.25;;;17.40;99.90;;;;;;4940938;28;89643;-31
2022/08/17 03:42:34;;;;;;;41.50;35.08;;;17.40;99.90;;;;;;4938834;28;90394;-36
2022/08/17 03:45:01;;;;;;;38.67;33.50;;;17.40;99.90;;;;;;4941929;28;89858;-32
2022/08/17 03:58:25;;;;;;;44.95;36.28;;;17.50;99.90;;;;;;4942638;28;90331;-32
2022/08/17 04:00:51;;;;;;;44.60;37.95;;;17.60;99.90;;;;;;4942234;28;89066;-33
2022/08/17 04:03:17;;;;;;;39.53;32.90;;;17.60;99.90;;;;;;4942298;28;90200;-33
2022/08/17 04:05:43;;;;;;;34.58;31.02;;;17.60;99.90;;;;;;4935007;28;90584;-31
2022/08/17 04:08:11;;;;;;;35.08;30.67;;;17.60;99.90;;;;;;4935549;28;90235;-34
2022/08/17 04:10:37;;;;;;;36.55;32.63;;;17.70;99.90;;;;;;4941359;28;90573;-35
2022/08/17 04:13:03;;;;;;;46.78;41.17;;;17.70;99.90;;;;;;4942579;28;90370;-31
2022/08/17 04:15:29;;;;;;;46.40;38.60;;;17.70;99.90;;;;;;4942002;28;89062;-33
2022/08/17 04:17:55;;;;;;;48.30;39.95;;;17.80;99.90;;;;;;4942234;28;90247;-32
2022/08/17 04:20:22;;;;;;;45.53;40.17;;;17.70;99.90;;;;;;4941283;28;89592;-33
2022/08/17 04:23:08;;;;;;;44.38;36.88;;;17.70;99.90;;;;;;4941963;28;90197;-32
2022/08/17 04:25:35;;;;;;;44.42;39.10;;;17.70;99.90;;;;;;4942028;28;89999;-35
2022/08/17 04:28:02;;;;;;;44.60;36.20;;;17.70;99.90;;;;;;4928830;28;90108;-34
2022/08/17 04:30:30;;;;;;;46.63;40.33;;;17.70;99.90;;;;;;4941072;28;89735;-35
2022/08/17 04:33:07;;;;;;;;;;;17.80;99.90;;;;;;4942090;28;89618;-31
2022/08/17 04:35:39;;;;;;;49.63;38.45;;;17.80;99.90;;;;;;4943023;28;89725;-36
2022/08/17 04:38:09;;;;;;;49.97;40.17;;;17.70;99.90;;;;;;4941982;28;90506;-35
2022/08/17 04:43:22;;;;;;;44.40;38.28;;;17.70;99.90;;;;;;4941325;28;88602;-36
2022/08/17 04:45:53;;;;;;;48.53;38.83;;;17.70;99.90;;;;;;4941528;28;88247;-33
2022/08/17 04:48:19;;;;;;;45.00;40.15;;;17.70;99.90;;;;;;4941819;28;89626;-36
2022/08/17 04:50:49;;;;;;;50.58;39.10;;;17.70;99.90;;;;;;4941959;28;88835;-32
2022/08/17 04:53:16;;;;;;;43.03;36.45;;;17.70;99.90;;;;;;4941754;28;89113;-31
2022/08/17 04:55:42;;;;;;;44.17;37.75;;;17.70;99.90;;;;;;4941371;28;88546;-33
2022/08/17 04:58:08;;;;;;;43.58;38.75;;;17.60;99.90;;;;;;4941673;28;90506;-31
2022/08/17 05:00:35;;;;;;;43.33;35.53;;;17.70;99.90;;;;;;4940813;28;90444;-34
2022/08/17 05:03:00;;;;;;;45.08;37.05;;;17.70;99.90;;;;;;4941002;28;90530;-31
2022/08/17 05:05:30;;;;;;;41.00;36.50;;;17.70;99.90;;;;;;4940787;28;90576;-33
2022/08/17 05:07:58;;;;;;;46.05;37.28;;;17.80;99.90;;;;;;4941297;28;90807;-32
2022/08/17 05:10:26;;;;;;;39.63;35.30;;;17.80;99.90;;;;;;4940745;28;91398;-32
2022/08/17 05:13:04;;;;;;;41.92;36.42;;;17.90;99.90;;;;;;4941096;28;89665;-33
2022/08/17 05:15:30;;;;;;;47.92;37.33;;;17.90;99.90;;;;;;4941312;28;89413;-32
2022/08/17 05:17:56;;;;;;;43.83;37.15;;;17.90;99.90;;;;;;4941743;28;90197;-34
2022/08/17 05:20:23;;;;;;;48.80;40.83;;;17.90;99.90;;;;;;4940245;28;91361;-34
2022/08/17 05:22:51;;;;;;;52.97;42.60;;;17.90;99.90;;;;;;4940880;28;88593;-33
2022/08/17 05:25:27;;;;;;;45.85;37.45;;;17.90;99.90;;;;;;4939377;28;88683;-35
2022/08/17 05:27:53;;;;;;;51.97;40.95;;;18.00;99.90;;;;;;4928099;28;90237;-34
2022/08/17 05:30:19;;;;;;;45.28;38.85;;;18.00;99.90;;;;;;4940386;28;90596;-34
2022/08/17 05:32:58;;;;;;;46.28;41.40;;;18.00;99.90;;;;;;4940309;28;89484;-32
2022/08/17 05:35:26;;;;;;;47.13;40.55;;;18.00;99.90;;;;;;4940894;28;88382;-33
2022/08/17 05:37:52;;;;;;;46.63;39.35;;;17.90;99.90;;;;;;4941267;28;90637;-31
2022/08/17 05:40:20;;;;;;;48.22;38.13;;;18.00;99.90;;;;;;4940909;28;89794;-31
2022/08/17 05:42:46;;;;;;;45.92;40.75;;;17.90;99.90;;;;;;4940534;28;89099;-36
2022/08/17 05:45:14;;;;;;;61.67;41.83;;;17.90;99.90;;;;;;4940672;28;89289;-34
2022/08/17 05:47:41;;;;;;;47.20;39.40;;;17.90;99.90;;;;;;4940942;28;90197;-33
2022/08/17 05:50:09;;;;;;;51.33;43.80;;;17.90;99.90;;;;;;4940328;28;90978;-33
2022/08/17 05:52:55;;;;;;;45.30;39.38;;;17.90;99.90;;;;;;4940540;28;90570;-32
2022/08/17 05:55:42;;;;;;;55.00;43.55;;;17.90;99.90;;;;;;4940372;28;88577;-34
2022/08/17 05:58:45;;;;;;;50.75;42.53;;;18.00;99.90;;;;;;4940298;28;90729;-32
2022/08/17 06:01:39;;;;;;;52.17;43.38;;;18.00;99.90;;;;;;4940509;28;91830;-35
2022/08/17 06:04:25;;;;;;;53.50;39.67;;;18.00;99.90;;;;;;4940286;28;89234;-36
2022/08/17 06:07:10;;;;;;;45.40;39.67;;;18.10;99.90;;;;;;4939994;28;87998;-31
2022/08/17 06:09:43;;;;;;;48.60;40.28;;;18.10;99.90;;;;;;4940303;28;90579;-31
2022/08/17 06:12:34;;;;;;;55.50;45.08;;;18.10;99.90;;;;;;4940581;28;90207;-34
2022/08/17 06:15:23;;;;;;;57.28;45.70;;;18.20;99.90;;;;;;4940347;28;89482;-30
2022/08/17 06:17:54;;;;;;;57.67;44.55;;;18.20;99.90;;;;;;4929046;28;89979;-31
2022/08/17 06:20:21;;;;;;;54.55;43.10;;;18.20;99.90;;;;;;4936426;28;90266;-35
2022/08/17 06:22:51;;;;;;;55.00;46.47;;;18.30;99.90;;;;;;4922674;28;90140;-33
2022/08/17 06:25:33;;;;;;;56.88;45.15;;;18.40;99.90;;;;;;4934602;28;90828;-36
2022/08/17 06:28:07;;;;;;;53.10;43.45;;;18.40;99.90;;;;;;4926810;28;88179;-32
2022/08/17 06:30:48;;;;;;;68.00;47.45;;;18.40;99.90;;;;;;4939604;28;90400;-33
2022/08/17 06:33:31;;;;;;;60.40;46.33;;;18.50;99.90;;;;;;4939189;28;89650;-32
2022/08/17 06:36:09;;;;;;;55.03;46.83;;;18.50;99.90;;;;;;4939978;28;90316;-33
2022/08/17 06:38:56;;;;;;;55.15;44.03;;;18.50;99.90;;;;;;4939945;28;88263;-34
2022/08/17 06:41:36;;;;;;;56.38;44.65;;;18.60;99.90;;;;;;4939067;28;90129;-32
2022/08/17 06:44:11;;;;;;;61.50;46.33;;;18.60;99.90;;;;;;4939408;28;92378;-32
2022/08/17 06:46:47;;;;;;;56.55;46.85;;;18.60;99.90;;;;;;4939360;28;90364;-33
2022/08/17 06:49:20;;;;;;;57.22;46.05;;;18.60;99.90;;;;;;4940580;28;89292;-33
2022/08/17 06:52:05;;;;;;;59.92;45.35;;;18.60;99.90;;;;;;4939191;28;90347;-35
2022/08/17 06:54:44;;;;;;;56.88;46.97;;;18.70;99.90;;;;;;4939364;28;89640;-34
2022/08/17 06:57:09;;;;;;;57.10;46.15;;;18.70;99.90;;;;;;4936582;28;89857;-35
2022/08/17 06:59:55;;;;;;;50.63;42.63;;;18.70;99.90;;;;;;4938552;28;89217;-33
2022/08/17 07:02:55;;;;;;;58.67;46.83;;;18.80;99.90;;;;;;4931547;28;90591;-33
2022/08/17 07:05:39;;;;;;;58.78;48.30;;;18.80;99.90;;;;;;4926707;28;89938;-34
2022/08/17 07:08:21;;;;;;;56.28;43.03;;;18.90;99.90;;;;;;4937695;28;88963;-32
2022/08/17 07:10:56;;;;;;;60.92;46.28;;;18.90;99.90;;;;;;4932724;28;89779;-36
2022/08/17 07:13:59;;;;;;;56.42;46.40;;;18.90;99.90;;;;;;4923791;28;89272;-32
2022/08/17 07:16:31;;;;;;;54.75;43.20;;;18.90;99.90;;;;;;4896758;28;89665;-32
2022/08/17 07:18:58;;;;;;;48.15;42.95;;;19.00;99.90;;;;;;4920377;28;88739;-33
2022/08/17 07:21:53;;;;;;;55.67;46.72;;;19.10;99.90;;;;;;4930294;28;89539;-34
2022/08/17 07:24:44;;;;;;;51.45;41.25;;;19.20;99.90;;;;;;4936804;28;90354;-32
2022/08/17 07:27:27;;;;;;;53.42;42.05;;;19.50;99.90;;;;;;4930518;28;89430;-34
2022/08/17 07:30:23;;;;;;;41.20;36.42;;;19.80;99.90;;;;;;4937812;28;90344;-33
2022/08/17 07:33:10;;;;;;;41.90;37.42;;;20.10;99.90;;;;;;4930889;28;88316;-35
2022/08/17 07:35:41;;;;;;;41.17;35.38;;;20.20;99.90;;;;;;4938030;28;88917;-33
2022/08/17 07:38:16;;;;;;;46.42;39.35;;;20.30;99.90;;;;;;4946187;28;90521;-33
2022/08/17 07:40:56;;;;;;;44.75;36.22;;;20.50;99.90;;;;;;4945518;28;90754;-34
2022/08/17 07:43:40;;;;;;;47.35;38.50;;;20.60;99.90;;;;;;4947832;28;87937;-33
2022/08/17 07:49:02;;;;;;;40.83;35.33;;;20.90;99.90;;;;;;4946387;28;93311;-32
2022/08/17 07:51:30;;;;;;;39.80;34.20;;;21.10;99.90;;;;;;4937737;28;89655;-32
2022/08/17 07:54:21;;;;;;;41.50;34.92;;;21.20;99.90;;;;;;4932098;28;89328;-35
2022/08/17 07:56:54;;;;;;;33.60;29.90;;;21.40;99.90;;;;;;4916142;28;90368;-33
2022/08/17 07:59:22;;;;;;;36.03;32.17;;;21.50;99.90;;;;;;4929674;28;90086;-31
2022/08/17 08:01:57;;;;;;;33.78;30.30;;;21.50;99.90;;;;;;4918134;28;90298;-35
2022/08/17 08:04:48;;;;;;;32.80;28.55;;;21.50;99.90;;;;;;4918876;28;89650;-34
2022/08/17 08:07:17;;;;;;;38.53;30.27;;;21.50;99.90;;;;;;4924091;28;90292;-34
2022/08/17 08:09:58;;;;;;;39.83;31.17;;;21.60;99.90;;;;;;4926576;28;89921;-32
2022/08/17 08:12:25;;;;;;;35.25;31.73;;;21.60;99.90;;;;;;4933257;28;90340;-33
2022/08/17 08:15:16;;;;;;;36.90;32.95;;;21.70;99.90;;;;;;4948059;28;88171;-32
2022/08/17 08:17:46;;;;;;;33.97;30.33;;;21.80;99.90;;;;;;4940372;28;90875;-34
2022/08/17 08:20:12;;;;;;;32.75;29.30;;;21.90;99.90;;;;;;4937098;28;89969;-33
2022/08/17 08:22:56;;;;;;;30.95;26.88;;;22.10;99.90;;;;;;4947767;28;89671;-32
2022/08/17 08:25:50;;;;;;;30.45;26.95;;;22.20;99.90;;;;;;4939277;28;88439;-32
2022/08/17 08:28:19;;;;;;;30.52;27.25;;;22.30;99.90;;;;;;4932741;28;90428;-32
2022/08/17 08:30:48;;;;;;;28.40;25.08;;;22.40;99.90;;;;;;4948791;28;90507;-34
2022/08/17 08:33:33;;;;;;;32.05;24.65;;;22.30;99.90;;;;;;4949571;28;90109;-32
2022/08/17 08:36:20;;;;;;;28.92;25.85;;;22.30;99.90;;;;;;4950881;28;87631;-32
2022/08/17 08:39:19;;;;;;;27.90;24.48;;;22.20;99.90;;;;;;4948186;28;88765;-33
2022/08/17 08:42:09;;;;;;;30.20;26.05;;;22.30;99.90;;;;;;4946786;28;89092;-36
2022/08/17 08:44:49;;;;;;;29.23;25.90;;;22.30;99.90;;;;;;4946039;28;89646;-35
2022/08/17 08:47:36;;;;;;;28.67;25.60;;;22.30;99.90;;;;;;4947383;28;89157;-35
2022/08/17 08:50:07;;;;;;;31.55;24.70;;;22.40;99.90;;;;;;4946214;28;92315;-32
2022/08/17 08:52:47;;;;;;;27.70;24.83;;;22.40;99.90;;;;;;4941183;28;88217;-35
2022/08/17 08:55:33;;;;;;;27.02;24.13;;;22.40;99.90;;;;;;4944407;28;89707;-33
2022/08/17 08:58:14;;;;;;;27.08;24.23;;;22.40;99.90;;;;;;4938302;28;89745;-31
2022/08/17 09:00:46;;;;;;;25.10;22.27;;;22.30;99.90;;;;;;4943102;28;89685;-33
2022/08/17 09:03:44;;;;;;;24.33;21.70;;;22.20;99.90;;;;;;4945036;28;89338;-34
2022/08/17 09:06:31;;;;;;;25.45;22.65;;;22.10;99.90;;;;;;4926590;28;90006;-33
2022/08/17 09:09:15;;;;;;;23.17;20.70;;;22.10;99.90;;;;;;4936061;28;88952;-33
2022/08/17 09:12:06;;;;;;;22.50;20.40;;;22.00;99.90;;;;;;4940630;28;90281;-34
2022/08/17 09:14:35;;;;;;;24.92;20.48;;;22.00;99.90;;;;;;4931116;28;89507;-32
2022/08/17 09:17:28;;;;;;;22.30;20.08;;;21.90;99.90;;;;;;4940695;28;90357;-36
2022/08/17 09:20:00;;;;;;;22.33;19.98;;;21.90;99.90;;;;;;4941994;28;89952;-31
2022/08/17 09:22:48;;;;;;;21.55;19.35;;;22.00;99.90;;;;;;4927566;28;90387;-32
2022/08/17 09:25:27;;;;;;;20.60;17.95;;;22.00;99.90;;;;;;4940060;28;90717;-31
2022/08/17 09:28:02;;;;;;;19.00;17.10;;;22.10;99.90;;;;;;4928120;28;90561;-35
2022/08/17 09:30:39;;;;;;;17.80;16.00;;;22.00;99.90;;;;;;4940844;28;89977;-34
2022/08/17 09:33:08;;;;;;;17.67;16.10;;;22.00;99.90;;;;;;4940632;28;89164;-34
2022/08/17 09:35:43;;;;;;;17.88;16.13;;;22.00;99.90;;;;;;4940490;28;89359;-33
2022/08/17 09:38:29;;;;;;;21.42;17.15;;;22.10;99.90;;;;;;4940821;28;89495;-35
2022/08/17 09:41:08;;;;;;;20.15;18.35;;;22.10;99.90;;;;;;4940239;28;89501;-34
2022/08/17 09:43:55;;;;;;;20.48;18.40;;;22.10;99.90;;;;;;4928842;28;92916;-33
2022/08/17 09:46:24;;;;;;;24.00;17.60;;;22.10;99.90;;;;;;4940779;28;89273;-32
2022/08/17 09:49:30;;;;;;;18.85;16.70;;;22.20;99.90;;;;;;4940565;28;89898;-33
2022/08/17 09:52:24;;;;;;;23.38;21.02;;;22.30;99.90;;;;;;4940493;28;89923;-33
2022/08/17 09:54:53;;;;;;;25.45;21.90;;;22.50;99.90;;;;;;4940894;28;90111;-34
2022/08/17 09:57:24;;;;;;;22.83;20.52;;;22.70;99.90;;;;;;4940441;28;89152;-30
2022/08/17 10:00:17;;;;;;;23.13;20.58;;;23.00;99.90;;;;;;4940320;28;89653;-33
2022/08/17 10:03:18;;;;;;;23.13;20.77;;;23.20;99.90;;;;;;4939961;28;88833;-31
2022/08/17 10:05:55;;;;;;;25.33;22.50;;;23.30;99.90;;;;;;4928535;28;90410;-31
2022/08/17 10:08:51;;;;;;;26.98;20.75;;;23.30;99.90;;;;;;4940272;28;89433;-31
2022/08/17 10:14:49;;;;;;;26.35;23.67;;;23.30;99.90;;;;;;4939868;28;89298;-36
2022/08/17 10:17:23;;;;;;;22.05;19.70;;;23.20;99.90;;;;;;4939923;28;92031;-33
2022/08/17 10:20:05;;;;;;;31.20;23.42;;;23.10;99.90;;;;;;4939751;28;90580;-34
2022/08/17 10:28:14;;;;;;;26.13;21.65;;;23.30;99.90;;;;;;4940169;28;90625;-34
2022/08/17 10:30:49;;;;;;;24.25;21.75;;;23.30;99.90;;;;;;4940211;28;89830;-34
2022/08/17 10:33:22;;;;;;;21.42;19.25;;;23.30;99.90;;;;;;4939949;28;89709;-33
2022/08/17 10:35:51;;;;;;;27.50;23.05;;;23.40;99.90;;;;;;4940905;28;90258;-32
2022/08/17 10:38:24;;;;;;;26.13;22.98;;;23.40;99.90;;;;;;4937830;28;91114;-34
2022/08/17 10:40:59;;;;;;;29.17;23.88;;;23.40;99.90;;;;;;4940530;28;89636;-32
2022/08/17 10:43:33;;;;;;;25.27;22.70;;;23.30;99.90;;;;;;4939728;28;89580;-34
2022/08/17 10:46:17;;;;;;;39.08;24.20;;;23.30;99.90;;;;;;4940185;28;90196;-32
2022/08/17 10:48:43;;;;;;;25.35;22.73;;;23.30;99.90;;;;;;4927453;28;91025;-32
2022/08/17 10:51:36;;;;;;;29.80;26.40;;;23.30;99.90;;;;;;4939479;28;89658;-34
2022/08/17 10:54:26;;;;;;;30.52;23.52;;;23.30;99.90;;;;;;4929847;28;90091;-31
2022/08/17 10:56:53;;;;;;;35.30;24.88;;;23.30;99.90;;;;;;4940226;28;89052;-32
2022/08/17 10:59:33;;;;;;;28.98;24.65;;;23.40;99.90;;;;;;4939274;28;90247;-33
2022/08/17 11:02:16;;;;;;;26.65;22.23;;;23.50;99.90;;;;;;4939827;28;89892;-32
2022/08/17 11:04:50;;;;;;;24.98;22.42;;;23.60;99.90;;;;;;4939865;28;90147;-35
2022/08/17 11:07:35;;;;;;;28.30;25.33;;;23.80;99.90;;;;;;4926627;28;87974;-33
2022/08/17 11:10:45;;;;;;;29.25;26.05;;;24.00;99.90;;;;;;4939338;28;90294;-33
2022/08/17 11:13:20;;;;;;;30.88;26.73;;;24.20;99.90;;;;;;4938837;28;90686;-32
2022/08/17 11:16:13;;;;;;;32.90;25.60;;;24.40;99.90;;;;;;4925893;28;90390;-33
2022/08/17 11:18:54;;;;;;;30.35;25.75;;;24.40;99.90;;;;;;4939842;28;88970;-31
2022/08/17 11:21:46;;;;;;;37.45;31.48;;;24.50;99.90;;;;;;4939658;28;90029;-33
2022/08/17 11:24:33;;;;;;;33.92;27.20;;;24.50;99.90;;;;;;4938406;28;89629;-35
2022/08/17 11:27:18;;;;;;;35.08;28.02;;;24.60;99.90;;;;;;4927996;28;89907;-35
2022/08/17 11:29:52;;;;;;;33.90;29.92;;;24.70;99.90;;;;;;4938754;28;88110;-34
2022/08/17 11:32:49;;;;;;;33.65;29.70;;;24.80;99.90;;;;;;4938832;28;90731;-33
2022/08/17 11:35:20;;;;;;;39.63;29.85;;;24.90;99.90;;;;;;4936235;28;89733;-32
2022/08/17 11:38:19;;;;;;;33.33;28.30;;;24.80;99.90;;;;;;4937996;28;89676;-33
2022/08/17 11:41:16;;;;;;;44.67;30.42;;;24.70;99.90;;;;;;4938907;28;89167;-35
2022/08/17 11:43:48;;;;;;;;;;;24.60;99.90;;;;;;4927562;28;90104;-32
2022/08/17 11:52:41;;;;;;;38.10;32.65;;;24.30;99.90;;;;;;4938719;28;87839;-32
2022/08/17 11:55:10;;;;;;;46.75;37.83;;;24.20;99.90;;;;;;4939515;28;90728;-32
2022/08/17 11:57:39;;;;;;;47.15;38.53;;;24.10;99.90;;;;;;4939078;28;91204;-32
2022/08/17 12:00:10;;;;;;;45.28;37.55;;;24.10;99.90;;;;;;4938692;28;89817;-32
2022/08/17 12:02:43;;;;;;;48.63;40.78;;;24.10;99.90;;;;;;4938973;28;89946;-35
2022/08/17 12:05:26;;;;;;;43.35;36.97;;;24.00;99.90;;;;;;4939781;28;89874;-34
2022/08/17 12:08:10;;;;;;;48.25;41.25;;;24.00;99.90;;;;;;4941584;28;90677;-35
2022/08/17 12:10:48;;;;;;;48.92;38.70;;;23.90;99.90;;;;;;4942369;28;90441;-35
2022/08/17 12:13:16;;;;;;;55.70;43.67;;;23.90;99.90;;;;;;4942243;28;88273;-32
2022/08/17 12:15:48;;;;;;;44.95;39.40;;;23.80;99.90;;;;;;4941566;28;90792;-34
2022/08/17 12:18:31;;;;;;;48.15;41.88;;;23.80;99.90;;;;;;4941782;28;88955;-33
2022/08/17 12:21:15;;;;;;;50.40;40.25;;;23.80;99.90;;;;;;4928654;28;90043;-32
2022/08/17 12:24:05;;;;;;;51.45;42.60;;;23.90;99.90;;;;;;4941991;28;88004;-32
2022/08/17 12:26:35;;;;;;;50.28;41.97;;;23.80;99.90;;;;;;4900547;28;89601;-35
2022/08/17 12:29:04;;;;;;;52.63;42.92;;;24.00;99.90;;;;;;4902557;28;90279;-34
2022/08/17 12:31:35;;;;;;;51.53;42.88;;;24.00;99.90;;;;;;4902224;28;89252;-34
2022/08/17 12:34:03;;;;;;;50.20;41.47;;;24.00;99.90;;;;;;4903284;28;90074;-34
2022/08/17 12:36:31;;;;;;;53.55;43.67;;;24.00;99.90;;;;;;4902834;28;90794;-33
2022/08/17 12:39:02;;;;;;;;;;;24.00;99.90;;;;;;4904270;28;90497;-34
2022/08/17 12:41:40;;;;;;;53.63;41.20;;;24.00;99.90;;;;;;4904951;28;89185;-34
2022/08/17 12:44:20;;;;;;;48.22;41.83;;;24.10;99.90;;;;;;4903766;28;89009;-35
2022/08/17 12:47:16;;;;;;;53.03;44.17;;;24.00;99.90;;;;;;4903069;28;91056;-32
2022/08/17 12:49:44;;;;;;;54.17;43.33;;;23.80;99.90;;;;;;4914696;28;90102;-35
2022/08/17 12:52:23;;;;;;;52.58;44.58;;;23.90;99.90;;;;;;4902927;28;89346;-34
2022/08/17 12:54:59;;;;;;;50.17;44.28;;;23.90;99.90;;;;;;4903207;28;89078;-32
2022/08/17 12:57:40;;;;;;;52.78;43.85;;;23.90;99.90;;;;;;4902462;28;89914;-34
2022/08/17 13:00:24;;;;;;;54.78;45.05;;;23.90;99.90;;;;;;4902745;28;90562;-32
2022/08/17 13:03:00;;;;;;;53.95;46.00;;;23.90;99.90;;;;;;4902731;28;90799;-33
2022/08/17 13:05:34;;;;;;;52.13;41.78;;;23.90;99.90;;;;;;4902854;28;89551;-32
2022/08/17 13:08:12;;;;;;;50.75;45.03;;;23.90;99.90;;;;;;4902132;28;91224;-34
2022/08/17 13:10:38;;;;;;;49.13;39.10;;;23.90;99.90;;;;;;4903083;28;89923;-33
2022/08/17 13:13:22;;;;;;;46.17;39.38;;;24.00;99.90;;;;;;4902702;28;89520;-33
2022/08/17 13:15:54;;;;;;;42.53;37.92;;;23.90;99.90;;;;;;4900979;28;88726;-34
2022/08/17 13:18:41;;;;;;;42.33;36.55;;;23.80;99.90;;;;;;4901738;28;90109;-34
2022/08/17 13:21:21;;;;;;;;;;;23.80;99.90;;;;;;4891602;28;89818;-33
2022/08/17 13:24:02;;;;;;;43.88;35.78;;;23.80;99.90;;;;;;4904215;28;89544;-33
2022/08/17 13:26:41;;;;;;;44.88;38.75;;;23.70;99.90;;;;;;4900014;28;88462;-32
2022/08/17 13:29:27;;;;;;;41.75;34.63;;;23.70;99.90;;;;;;4901956;28;90246;-35
2022/08/17 13:32:11;;;;;;;44.33;36.35;;;23.70;99.90;;;;;;4901647;28;89918;-36
2022/08/17 13:34:46;;;;;;;42.00;35.50;;;23.60;99.90;;;;;;4902423;28;89769;-34
2022/08/17 13:37:29;;;;;;;35.63;31.63;;;23.70;99.90;;;;;;4902143;28;89721;-36
2022/08/17 13:40:02;;;;;;;37.47;33.25;;;23.70;99.90;;;;;;4901209;28;89513;-34
2022/08/17 13:42:32;;;;;;;36.10;30.15;;;23.70;99.90;;;;;;4901011;28;89773;-35